Brant Rock, Massachusetts
Current Conditions -  °F | °C
As of 1:52 PM on Sunday 23 Nov 2014 (Local Time) from KPYM Reporting Station
Clear Clear  
Wind Chill: 57°   Ceiling: Unl
Heat Index: 57°   Visibility: 10mi
Dew Point: 36°   Wind: 8mph
Humidity: 45%   Direction: 240°WSW
Pressure: 30.12"   Gusts: NA
Location:  42.09°N, 70.64°W
Report Text: KPYM 231852Z AUTO 24007KT 10SM CLR 14/02 A3012 RMK AO2 SLP199 T01390022
Loading
Personal Weather Stations






























Interactive Weather Map New forecast layout! Learn more

10-Day Weather Forecast

Advertisements
Track Severe Weather on mobile